Time;durP1;ratioP1;P1;durP2;ratioP2;P2;SDS_P1;SDS_P2;PMS_P1;PMS_P2;Temp;Humidity;BMP_temperature;BMP_pressure;BME280_temperature;BME280_humidity;BME280_pressure;Samples;Min_cycle;Max_cycle;Signal;HPM_P1;HPM_P2
2020/01/10 00:02:16;;;;;;;2.70;2.50;;;;;;;19.28;42.70;100493.31;;;;-57
2020/01/10 00:05:15;;;;;;;2.93;2.59;;;;;;;19.27;42.73;100492.27;;;;-58
2020/01/10 00:08:15;;;;;;;2.97;2.51;;;;;;;19.26;42.72;100497.30;;;;-59
2020/01/10 00:11:15;;;;;;;3.41;2.56;;;;;;;19.24;42.71;100496.14;;;;-59
2020/01/10 00:14:15;;;;;;;2.57;2.37;;;;;;;19.24;42.73;100501.16;;;;-60
2020/01/10 00:17:15;;;;;;;2.91;2.47;;;;;;;19.22;42.70;100498.30;;;;-58
2020/01/10 00:20:15;;;;;;;3.21;2.69;;;;;;;19.21;42.72;100493.50;;;;-59
2020/01/10 00:23:15;;;;;;;2.70;2.50;;;;;;;19.20;42.73;100491.27;;;;-57
2020/01/10 00:26:15;;;;;;;2.66;2.46;;;;;;;19.19;42.72;100493.73;;;;-59
2020/01/10 00:29:15;;;;;;;2.57;2.37;;;;;;;19.18;42.73;100502.63;;;;-58
2020/01/10 00:32:15;;;;;;;2.77;2.57;;;;;;;19.17;42.72;100500.23;;;;-59
2020/01/10 00:35:15;;;;;;;2.94;2.60;;;;;;;19.15;42.75;100500.41;;;;-57
2020/01/10 00:38:15;;;;;;;2.86;2.60;;;;;;;19.14;42.77;100505.17;;;;-59
2020/01/10 00:41:16;;;;;;;2.50;2.30;;;;;;;19.12;42.79;100502.75;;;;-59
2020/01/10 00:44:15;;;;;;;2.75;2.48;;;;;;;19.12;42.75;100506.33;;;;-60
2020/01/10 00:47:15;;;;;;;2.69;2.49;;;;;;;19.11;42.77;100509.80;;;;-59
2020/01/10 00:50:15;;;;;;;2.79;2.57;;;;;;;19.09;42.78;100504.27;;;;-57
2020/01/10 00:53:15;;;;;;;2.65;2.45;;;;;;;19.07;42.78;100508.64;;;;-51
2020/01/10 00:56:15;;;;;;;2.43;2.23;;;;;;;19.07;42.81;100506.86;;;;-51
2020/01/10 00:59:15;;;;;;;2.61;2.41;;;;;;;19.05;42.77;100514.08;;;;-51
2020/01/10 01:02:19;;;;;;;2.60;2.40;;;;;;;19.05;42.84;100520.83;;;;-51
2020/01/10 01:05:15;;;;;;;2.60;2.39;;;;;;;19.04;42.78;100526.38;;;;-51
2020/01/10 01:12:16;;;;;;;2.50;2.30;;;;;;;19.01;42.80;100538.72;;;;-51
2020/01/10 01:18:22;;;;;;;2.60;2.40;;;;;;;19.00;42.79;100546.53;;;;-51
2020/01/10 01:24:18;;;;;;;2.65;2.45;;;;;;;18.98;42.80;100555.81;;;;-51
2020/01/10 01:27:15;;;;;;;2.92;2.60;;;;;;;18.95;42.84;100556.45;;;;-51
2020/01/10 01:30:15;;;;;;;2.51;2.31;;;;;;;18.95;42.82;100562.47;;;;-51
2020/01/10 01:33:15;;;;;;;2.48;2.28;;;;;;;18.94;42.81;100564.93;;;;-51
2020/01/10 01:36:16;;;;;;;2.52;2.32;;;;;;;18.92;42.86;100563.66;;;;-51
2020/01/10 01:39:15;;;;;;;2.38;2.18;;;;;;;18.92;42.87;100566.61;;;;-51
2020/01/10 01:42:16;;;;;;;2.23;2.03;;;;;;;18.91;42.83;100568.47;;;;-51
2020/01/10 01:45:16;;;;;;;2.30;2.10;;;;;;;18.91;42.89;100572.65;;;;-51
2020/01/10 01:48:15;;;;;;;2.60;2.40;;;;;;;18.90;42.86;100573.33;;;;-51
2020/01/10 01:51:15;;;;;;;2.49;2.21;;;;;;;18.89;42.85;100575.95;;;;-50
2020/01/10 01:54:15;;;;;;;2.47;2.27;;;;;;;18.88;42.85;100577.08;;;;-51
2020/01/10 01:57:16;;;;;;;2.47;2.27;;;;;;;18.87;42.85;100582.09;;;;-51
2020/01/10 02:00:15;;;;;;;2.52;2.32;;;;;;;18.86;42.85;100583.05;;;;-51
2020/01/10 02:03:15;;;;;;;2.34;2.14;;;;;;;18.86;42.87;100586.02;;;;-51
2020/01/10 02:08:16;;;;;;;2.51;2.27;;;;;;;18.84;42.86;100593.27;;;;-51
2020/01/10 02:11:16;;;;;;;2.39;2.19;;;;;;;18.83;42.88;100595.02;;;;-51
2020/01/10 02:14:16;;;;;;;2.50;2.30;;;;;;;18.82;42.88;100596.23;;;;-51
2020/01/10 02:17:16;;;;;;;2.43;2.23;;;;;;;18.82;42.87;100595.03;;;;-51
2020/01/10 02:20:15;;;;;;;2.35;2.15;;;;;;;18.81;42.87;100597.32;;;;-51
2020/01/10 02:23:16;;;;;;;2.51;2.31;;;;;;;18.80;42.90;100593.53;;;;-50
2020/01/10 02:28:16;;;;;;;2.30;2.10;;;;;;;18.77;42.87;100591.81;;;;-51
2020/01/10 02:31:16;;;;;;;2.39;2.18;;;;;;;18.77;42.87;100585.11;;;;-50
2020/01/10 02:34:16;;;;;;;2.37;2.13;;;;;;;18.76;42.87;100582.56;;;;-50
2020/01/10 02:37:16;;;;;;;2.31;2.11;;;;;;;18.75;42.88;100587.36;;;;-51
2020/01/10 02:40:16;;;;;;;2.47;2.27;;;;;;;18.74;42.91;100577.05;;;;-51
2020/01/10 02:43:16;;;;;;;2.13;1.93;;;;;;;18.74;42.87;100579.89;;;;-51
2020/01/10 02:47:15;;;;;;;2.28;2.08;;;;;;;18.73;42.87;100583.91;;;;-45
2020/01/10 02:50:16;;;;;;;2.19;1.99;;;;;;;18.72;42.87;100589.16;;;;-45
2020/01/10 02:53:15;;;;;;;2.37;2.17;;;;;;;18.71;42.89;100598.14;;;;-45
2020/01/10 02:56:16;;;;;;;2.18;1.98;;;;;;;18.71;42.87;100593.68;;;;-45
2020/01/10 02:59:16;;;;;;;2.23;2.03;;;;;;;18.69;42.91;100600.55;;;;-45
2020/01/10 03:02:16;;;;;;;2.01;1.90;;;;;;;18.69;42.91;100596.42;;;;-45
2020/01/10 03:05:15;;;;;;;2.30;2.10;;;;;;;18.68;42.93;100597.15;;;;-45
2020/01/10 03:08:16;;;;;;;2.30;2.10;;;;;;;18.67;42.90;100597.27;;;;-45
2020/01/10 03:11:16;;;;;;;2.27;2.07;;;;;;;18.67;42.89;100589.91;;;;-45
2020/01/10 03:14:16;;;;;;;2.21;2.01;;;;;;;18.66;42.95;100588.58;;;;-45
2020/01/10 03:22:17;;;;;;;2.05;1.90;;;;;;;18.64;42.94;100593.77;;;;-45
2020/01/10 03:25:43;;;;;;;2.01;1.88;;;;;;;18.63;42.93;100594.40;;;;-45
2020/01/10 03:28:19;;;;;;;2.29;2.01;;;;;;;18.62;42.93;100597.53;;;;-45
2020/01/10 03:31:16;;;;;;;2.07;1.89;;;;;;;18.61;42.96;100591.38;;;;-45
2020/01/10 03:34:15;;;;;;;2.07;1.91;;;;;;;18.61;42.95;100590.95;;;;-45
2020/01/10 03:37:16;;;;;;;2.23;2.03;;;;;;;18.61;42.94;100607.56;;;;-45
2020/01/10 03:40:15;;;;;;;2.57;1.98;;;;;;;18.60;43.00;100609.19;;;;-45
2020/01/10 03:43:16;;;;;;;2.27;2.07;;;;;;;18.59;42.93;100608.34;;;;-45
2020/01/10 03:49:17;;;;;;;2.10;1.90;;;;;;;18.58;42.95;100613.48;;;;-45
2020/01/10 03:55:20;;;;;;;2.13;1.95;;;;;;;18.57;42.94;100612.28;;;;-45
2020/01/10 03:58:16;;;;;;;2.20;2.00;;;;;;;18.55;42.96;100620.75;;;;-45
2020/01/10 04:01:16;;;;;;;4.40;2.00;;;;;;;18.55;43.02;100617.47;;;;-45
2020/01/10 04:04:16;;;;;;;2.02;1.89;;;;;;;18.54;42.98;100614.91;;;;-45
2020/01/10 04:07:16;;;;;;;2.15;1.95;;;;;;;18.54;42.95;100616.18;;;;-45
2020/01/10 04:13:26;;;;;;;2.02;1.91;;;;;;;18.53;42.95;100613.12;;;;-45
2020/01/10 04:16:16;;;;;;;2.05;1.85;;;;;;;18.52;42.96;100607.82;;;;-45
2020/01/10 04:19:16;;;;;;;1.81;1.71;;;;;;;18.51;42.99;100611.41;;;;-45
2020/01/10 04:22:16;;;;;;;1.92;1.81;;;;;;;18.50;42.99;100614.47;;;;-45
2020/01/10 04:25:16;;;;;;;1.90;1.80;;;;;;;18.50;42.95;100613.13;;;;-45
2020/01/10 04:28:16;;;;;;;2.01;1.82;;;;;;;18.50;42.99;100625.91;;;;-45
2020/01/10 04:31:16;;;;;;;1.79;1.69;;;;;;;18.49;42.96;100623.89;;;;-48
2020/01/10 04:34:16;;;;;;;1.90;1.80;;;;;;;18.48;43.00;100629.25;;;;-45
2020/01/10 04:37:16;;;;;;;2.11;1.84;;;;;;;18.47;43.02;100632.21;;;;-45
2020/01/10 04:40:16;;;;;;;1.96;1.86;;;;;;;18.47;42.98;100625.36;;;;-45
2020/01/10 04:43:16;;;;;;;2.21;2.00;;;;;;;18.47;42.98;100626.70;;;;-45
2020/01/10 04:46:16;;;;;;;1.87;1.77;;;;;;;18.48;42.95;100623.23;;;;-45
2020/01/10 04:49:16;;;;;;;1.91;1.80;;;;;;;18.49;42.93;100626.13;;;;-45
2020/01/10 04:52:16;;;;;;;1.75;1.65;;;;;;;18.49;42.98;100629.03;;;;-45
2020/01/10 04:55:16;;;;;;;1.97;1.82;;;;;;;18.51;42.96;100629.41;;;;-45
2020/01/10 04:58:16;;;;;;;1.93;1.83;;;;;;;18.52;42.95;100634.08;;;;-45
2020/01/10 05:01:16;;;;;;;1.80;1.70;;;;;;;18.53;42.94;100632.12;;;;-45
2020/01/10 05:04:16;;;;;;;1.90;1.80;;;;;;;18.56;42.94;100631.06;;;;-45
2020/01/10 05:07:16;;;;;;;2.09;1.89;;;;;;;18.58;42.89;100625.02;;;;-45
2020/01/10 05:10:16;;;;;;;1.95;1.85;;;;;;;18.62;42.87;100627.45;;;;-45
2020/01/10 05:13:15;;;;;;;2.07;1.89;;;;;;;18.66;42.96;100633.69;;;;-45
2020/01/10 05:16:16;;;;;;;1.90;1.80;;;;;;;18.68;42.79;100643.89;;;;-45
2020/01/10 05:19:16;;;;;;;1.91;1.80;;;;;;;18.72;42.84;100646.16;;;;-45
2020/01/10 05:22:16;;;;;;;1.84;1.74;;;;;;;18.75;42.86;100650.27;;;;-45
2020/01/10 05:25:16;;;;;;;2.02;1.90;;;;;;;18.79;42.86;100647.73;;;;-45
2020/01/10 05:28:16;;;;;;;2.10;1.90;;;;;;;18.83;42.88;100649.39;;;;-45
2020/01/10 05:31:15;;;;;;;1.97;1.87;;;;;;;18.85;42.82;100641.34;;;;-51
2020/01/10 05:34:16;;;;;;;2.10;1.94;;;;;;;18.88;42.91;100644.80;;;;-51
2020/01/10 05:37:16;;;;;;;1.91;1.80;;;;;;;18.91;42.86;100649.73;;;;-51
2020/01/10 05:40:16;;;;;;;1.78;1.68;;;;;;;18.94;42.92;100647.83;;;;-52
2020/01/10 05:43:15;;;;;;;1.94;1.77;;;;;;;18.96;42.91;100647.77;;;;-51
2020/01/10 05:46:16;;;;;;;1.83;1.73;;;;;;;18.97;42.83;100640.79;;;;-51
2020/01/10 05:49:16;;;;;;;1.85;1.75;;;;;;;18.99;42.97;100641.98;;;;-51
2020/01/10 05:52:16;;;;;;;1.77;1.67;;;;;;;19.00;42.87;100640.77;;;;-50
2020/01/10 05:55:15;;;;;;;1.87;1.70;;;;;;;19.01;42.92;100643.50;;;;-50
2020/01/10 05:58:15;;;;;;;1.88;1.78;;;;;;;19.02;42.91;100642.30;;;;-51
2020/01/10 06:01:15;;;;;;;1.72;1.61;;;;;;;19.03;42.92;100646.77;;;;-51
2020/01/10 06:04:16;;;;;;;1.79;1.69;;;;;;;19.03;42.83;100648.88;;;;-51
2020/01/10 06:07:15;;;;;;;1.65;1.55;;;;;;;19.02;42.83;100649.84;;;;-51
2020/01/10 06:10:15;;;;;;;2.11;1.89;;;;;;;19.05;42.79;100653.73;;;;-51
2020/01/10 06:13:16;;;;;;;1.97;1.69;;;;;;;19.04;42.86;100656.36;;;;-51
2020/01/10 06:16:15;;;;;;;1.80;1.69;;;;;;;19.03;42.79;100651.30;;;;-50
2020/01/10 06:19:15;;;;;;;1.75;1.65;;;;;;;19.03;42.85;100649.05;;;;-51
2020/01/10 06:25:24;;;;;;;1.85;1.75;;;;;;;19.02;42.75;100648.23;;;;-51
2020/01/10 06:31:18;;;;;;;1.85;1.67;;;;;;;19.01;42.69;100644.77;;;;-51
2020/01/10 06:34:15;;;;;;;1.88;1.78;;;;;;;19.02;42.73;100652.18;;;;-51
2020/01/10 06:37:15;;;;;;;1.89;1.70;;;;;;;19.02;42.65;100658.27;;;;-51
2020/01/10 06:40:16;;;;;;;1.70;1.60;;;;;;;19.01;42.64;100665.75;;;;-51
2020/01/10 06:43:15;;;;;;;1.79;1.69;;;;;;;19.01;42.60;100662.84;;;;-51
2020/01/10 06:46:15;;;;;;;1.69;1.59;;;;;;;19.00;42.66;100661.02;;;;-51
2020/01/10 06:49:16;;;;;;;1.62;1.52;;;;;;;19.00;42.62;100664.37;;;;-51
2020/01/10 06:52:15;;;;;;;1.76;1.66;;;;;;;18.99;42.57;100664.92;;;;-51
2020/01/10 06:55:16;;;;;;;1.75;1.65;;;;;;;18.99;42.64;100663.75;;;;-51
2020/01/10 06:58:15;;;;;;;1.60;1.50;;;;;;;18.99;42.66;100665.31;;;;-51
2020/01/10 07:01:15;;;;;;;1.60;1.50;;;;;;;18.98;42.60;100672.73;;;;-51
2020/01/10 07:04:15;;;;;;;1.70;1.60;;;;;;;18.97;42.58;100662.64;;;;-50
2020/01/10 07:07:16;;;;;;;1.65;1.55;;;;;;;18.97;42.56;100667.33;;;;-56
2020/01/10 07:10:16;;;;;;;1.84;1.74;;;;;;;18.97;42.57;100667.23;;;;-58
2020/01/10 07:13:16;;;;;;;1.53;1.43;;;;;;;18.97;42.59;100675.44;;;;-57
2020/01/10 07:16:16;;;;;;;1.69;1.59;;;;;;;18.97;42.54;100689.27;;;;-57
2020/01/10 07:20:08;;;;;;;1.60;1.50;;;;;;;18.97;42.57;100695.95;;;;-58
2020/01/10 07:23:18;;;;;;;1.62;1.52;;;;;;;18.97;42.57;100705.83;;;;-57
2020/01/10 07:26:15;;;;;;;1.64;1.54;;;;;;;18.97;42.61;100700.03;;;;-57
2020/01/10 07:29:15;;;;;;;1.81;1.71;;;;;;;18.97;42.59;100707.67;;;;-57
2020/01/10 07:32:15;;;;;;;1.61;1.51;;;;;;;18.99;42.55;100713.35;;;;-57
2020/01/10 07:35:15;;;;;;;1.70;1.60;;;;;;;18.98;42.59;100717.09;;;;-57
2020/01/10 07:38:15;;;;;;;1.61;1.51;;;;;;;18.98;42.55;100716.59;;;;-58
2020/01/10 07:41:16;;;;;;;1.59;1.49;;;;;;;18.98;42.51;100716.59;;;;-58
2020/01/10 07:44:15;;;;;;;1.72;1.62;;;;;;;18.99;42.51;100716.47;;;;-57
2020/01/10 07:47:15;;;;;;;1.70;1.60;;;;;;;18.99;42.50;100720.16;;;;-58
2020/01/10 07:50:15;;;;;;;1.67;1.47;;;;;;;18.99;42.45;100712.30;;;;-57
2020/01/10 07:53:15;;;;;;;1.60;1.50;;;;;;;18.98;42.45;100707.72;;;;-58
2020/01/10 07:56:15;;;;;;;1.63;1.53;;;;;;;19.01;42.51;100712.78;;;;-57
2020/01/10 07:59:16;;;;;;;1.60;1.50;;;;;;;18.99;42.46;100715.31;;;;-58
2020/01/10 08:02:16;;;;;;;1.70;1.60;;;;;;;19.00;42.49;100720.43;;;;-58
2020/01/10 08:09:51;;;;;;;1.61;1.51;;;;;;;19.00;42.48;100723.05;;;;-57
2020/01/10 08:12:51;;;;;;;1.60;1.50;;;;;;;18.99;42.48;100724.24;;;;-58
2020/01/10 08:15:51;;;;;;;1.68;1.58;;;;;;;18.99;42.40;100723.89;;;;-57
2020/01/10 08:18:51;;;;;;;1.68;1.58;;;;;;;18.99;42.44;100731.55;;;;-57
2020/01/10 08:21:51;;;;;;;1.57;1.47;;;;;;;18.98;42.45;100733.16;;;;-58
2020/01/10 08:24:51;;;;;;;1.63;1.53;;;;;;;19.00;42.45;100738.01;;;;-58
2020/01/10 08:27:51;;;;;;;3.19;1.71;;;;;;;18.99;42.79;100742.81;;;;-56
2020/01/10 08:30:51;;;;;;;2.59;2.14;;;;;;;18.73;42.54;100750.98;;;;-56
2020/01/10 08:33:51;;;;;;;3.17;1.99;;;;;;;18.81;42.53;100753.14;;;;-55
2020/01/10 08:36:51;;;;;;;2.84;1.92;;;;;;;18.86;42.76;100754.00;;;;-55
2020/01/10 08:39:51;;;;;;;8.48;2.22;;;;;;;18.94;43.66;100753.27;;;;-52
2020/01/10 08:42:51;;;;;;;4.66;1.98;;;;;;;19.01;43.69;100757.75;;;;-57
2020/01/10 08:45:51;;;;;;;3.89;1.89;;;;;;;19.05;43.74;100762.81;;;;-58
2020/01/10 08:48:53;;;;;;;3.69;1.80;;;;;;;19.11;43.72;100764.52;;;;-52
2020/01/10 08:51:51;;;;;;;2.37;1.73;;;;;;;19.15;44.07;100770.02;;;;-52
2020/01/10 08:54:51;;;;;;;3.53;1.94;;;;;;;19.20;44.18;100768.03;;;;-55
2020/01/10 08:57:51;;;;;;;3.09;1.84;;;;;;;19.24;43.88;100767.95;;;;-53
2020/01/10 09:00:51;;;;;;;2.57;1.70;;;;;;;19.28;43.79;100762.47;;;;-51
2020/01/10 09:03:51;;;;;;;2.11;1.81;;;;;;;19.32;43.76;100767.97;;;;-57
2020/01/10 09:06:51;;;;;;;2.01;1.71;;;;;;;19.37;43.61;100769.68;;;;-56
2020/01/10 09:09:51;;;;;;;3.50;2.03;;;;;;;19.33;43.00;100772.70;;;;-56
2020/01/10 09:12:51;;;;;;;5.16;2.45;;;;;;;19.38;43.69;100772.47;;;;-53
2020/01/10 09:15:53;;;;;;;7.71;2.03;;;;;;;19.44;43.82;100779.97;;;;-54
2020/01/10 09:18:53;;;;;;;4.10;1.95;;;;;;;19.49;43.88;100783.18;;;;-58
2020/01/10 09:21:54;;;;;;;3.31;1.95;;;;;;;19.55;43.90;100788.00;;;;-54
2020/01/10 09:25:03;;;;;;;2.53;1.77;;;;;;;19.59;43.50;100790.77;;;;-52
2020/01/10 09:28:03;;;;;;;3.43;1.90;;;;;;;19.60;43.68;100793.90;;;;-55
2020/01/10 09:33:56;;;;;;;3.11;2.03;;;;;;;19.69;44.04;100790.39;;;;-52
2020/01/10 09:36:52;;;;;;;3.36;1.81;;;;;;;19.71;43.79;100787.91;;;;-53
2020/01/10 09:39:51;;;;;;;2.75;1.85;;;;;;;19.74;43.84;100797.94;;;;-61
2020/01/10 09:42:51;;;;;;;1.92;1.73;;;;;;;19.75;43.91;100801.95;;;;-54
2020/01/10 09:45:51;;;;;;;2.62;1.80;;;;;;;19.76;43.19;100814.47;;;;-54
2020/01/10 09:48:51;;;;;;;3.37;1.82;;;;;;;19.75;42.86;100822.16;;;;-55
2020/01/10 09:51:51;;;;;;;3.04;1.81;;;;;;;19.75;43.08;100819.22;;;;-54
2020/01/10 09:54:51;;;;;;;4.24;2.05;;;;;;;19.75;42.88;100826.64;;;;-54
2020/01/10 09:57:51;;;;;;;2.70;1.77;;;;;;;19.75;42.68;100825.64;;;;-54
2020/01/10 10:00:51;;;;;;;2.86;1.65;;;;;;;19.75;42.76;100827.25;;;;-55
2020/01/10 10:03:51;;;;;;;1.99;1.60;;;;;;;19.74;42.62;100820.34;;;;-54
2020/01/10 10:06:51;;;;;;;2.03;1.77;;;;;;;19.75;42.54;100820.95;;;;-54
2020/01/10 10:09:51;;;;;;;3.68;1.81;;;;;;;19.75;42.67;100819.72;;;;-54
2020/01/10 10:12:51;;;;;;;2.59;1.69;;;;;;;19.75;42.50;100818.14;;;;-54
2020/01/10 10:15:51;;;;;;;2.33;1.71;;;;;;;19.76;42.51;100820.16;;;;-54
2020/01/10 10:18:51;;;;;;;3.34;1.83;;;;;;;19.80;42.68;100817.84;;;;-53
2020/01/10 10:21:51;;;;;;;1.95;1.76;;;;;;;19.82;43.11;100813.02;;;;-56
2020/01/10 10:24:51;;;;;;;3.91;1.73;;;;;;;19.84;43.23;100813.12;;;;-55
2020/01/10 10:27:51;;;;;;;2.27;1.67;;;;;;;19.86;43.00;100813.89;;;;-53
2020/01/10 10:30:51;;;;;;;2.11;1.69;;;;;;;19.91;43.57;100812.34;;;;-51
2020/01/10 10:33:51;;;;;;;2.33;1.57;;;;;;;19.93;43.52;100820.09;;;;-58
2020/01/10 10:36:51;;;;;;;2.61;1.70;;;;;;;19.95;43.50;100815.50;;;;-53
2020/01/10 10:39:51;;;;;;;2.01;1.71;;;;;;;19.95;43.08;100818.34;;;;-52
2020/01/10 10:42:51;;;;;;;2.59;1.62;;;;;;;19.98;43.49;100810.64;;;;-54
2020/01/10 10:45:51;;;;;;;1.66;1.54;;;;;;;19.98;43.47;100812.22;;;;-53
2020/01/10 10:48:51;;;;;;;4.49;1.83;;;;;;;19.96;42.89;100814.27;;;;-52
2020/01/10 10:51:51;;;;;;;3.85;1.70;;;;;;;19.98;42.86;100821.97;;;;-53
2020/01/10 10:54:51;;;;;;;3.41;1.87;;;;;;;20.01;42.88;100827.41;;;;-58
2020/01/10 10:57:51;;;;;;;4.67;1.80;;;;;;;20.02;43.09;100826.45;;;;-59
2020/01/10 11:00:51;;;;;;;2.67;1.64;;;;;;;20.03;43.13;100825.94;;;;-52
2020/01/10 11:03:51;;;;;;;3.52;1.71;;;;;;;20.04;42.96;100829.67;;;;-54
2020/01/10 11:07:03;;;;;;;5.17;1.56;;;;;;;20.04;42.65;100830.84;;;;-54
2020/01/10 11:10:07;;;;;;;3.43;1.45;;;;;;;20.05;42.69;100826.59;;;;-55
2020/01/10 11:15:51;;;;;;;2.24;1.63;;;;;;;20.04;42.56;100828.27;;;;-54
2020/01/10 11:18:51;;;;;;;4.01;1.73;;;;;;;20.05;42.45;100829.98;;;;-50
2020/01/10 11:22:10;;;;;;;1.89;1.54;;;;;;;20.06;42.42;100829.77;;;;-50
2020/01/10 11:29:57;;;;;;;1.79;1.54;;;;;;;20.07;42.37;100832.56;;;;-50
2020/01/10 11:33:13;;;;;;;2.34;1.53;;;;;;;20.07;42.39;100826.56;;;;-50
2020/01/10 11:36:01;;;;;;;2.18;1.61;;;;;;;20.06;42.20;100827.92;;;;-50
2020/01/10 11:38:51;;;;;;;2.03;1.53;;;;;;;20.07;42.33;100839.47;;;;-50
2020/01/10 11:41:51;;;;;;;2.40;1.59;;;;;;;20.07;42.23;100825.95;;;;-50
2020/01/10 11:44:51;;;;;;;3.87;1.59;;;;;;;20.11;42.36;100835.61;;;;-51
2020/01/10 11:47:51;;;;;;;2.95;1.70;;;;;;;20.10;42.16;100835.33;;;;-51
2020/01/10 11:50:51;;;;;;;2.16;1.50;;;;;;;20.08;42.18;100836.07;;;;-51
2020/01/10 11:53:51;;;;;;;1.95;1.49;;;;;;;20.09;42.20;100836.01;;;;-51
2020/01/10 11:56:51;;;;;;;3.65;1.70;;;;;;;20.08;42.11;100840.59;;;;-51
2020/01/10 11:59:51;;;;;;;2.16;1.61;;;;;;;20.08;42.07;100841.16;;;;-51
2020/01/10 12:02:51;;;;;;;2.05;1.51;;;;;;;20.07;42.18;100839.88;;;;-52
2020/01/10 12:05:51;;;;;;;2.21;1.45;;;;;;;20.08;42.17;100845.02;;;;-52
2020/01/10 12:08:51;;;;;;;1.83;1.56;;;;;;;20.05;42.19;100838.11;;;;-51
2020/01/10 12:11:51;;;;;;;2.38;1.60;;;;;;;20.07;42.07;100839.03;;;;-51
2020/01/10 12:14:51;;;;;;;2.59;1.60;;;;;;;20.06;42.11;100837.81;;;;-51
2020/01/10 12:17:51;;;;;;;1.73;1.61;;;;;;;20.06;42.14;100842.95;;;;-51
2020/01/10 12:20:51;;;;;;;2.54;1.47;;;;;;;20.05;42.05;100848.17;;;;-51
2020/01/10 12:23:51;;;;;;;1.61;1.51;;;;;;;20.08;42.16;100851.72;;;;-51
2020/01/10 12:26:51;;;;;;;1.78;1.53;;;;;;;20.08;42.08;100854.75;;;;-51
2020/01/10 12:29:51;;;;;;;2.13;1.51;;;;;;;20.09;42.01;100853.28;;;;-51
2020/01/10 12:32:51;;;;;;;1.87;1.49;;;;;;;20.10;42.02;100860.21;;;;-51
2020/01/10 12:35:51;;;;;;;1.49;1.34;;;;;;;20.11;42.00;100857.74;;;;-51
2020/01/10 12:38:51;;;;;;;1.50;1.40;;;;;;;20.12;42.08;100859.23;;;;-51
2020/01/10 12:41:51;;;;;;;1.39;1.29;;;;;;;20.13;42.04;100859.63;;;;-51
2020/01/10 12:44:51;;;;;;;1.70;1.40;;;;;;;20.14;41.91;100865.53;;;;-51
2020/01/10 12:47:51;;;;;;;1.65;1.45;;;;;;;20.16;42.08;100869.95;;;;-51
2020/01/10 12:50:51;;;;;;;2.41;1.38;;;;;;;20.16;42.03;100872.91;;;;-51
2020/01/10 12:53:51;;;;;;;3.52;1.47;;;;;;;20.19;42.33;100879.32;;;;-44
2020/01/10 12:56:51;;;;;;;1.48;1.38;;;;;;;20.25;42.64;100874.11;;;;-50
2020/01/10 12:59:51;;;;;;;5.29;1.54;;;;;;;20.27;42.99;100878.80;;;;-50
2020/01/10 13:02:51;;;;;;;3.90;1.60;;;;;;;20.29;42.63;100880.84;;;;-50
2020/01/10 13:05:51;;;;;;;2.07;1.43;;;;;;;20.28;42.47;100884.83;;;;-47
2020/01/10 13:08:51;;;;;;;3.53;1.38;;;;;;;20.29;42.38;100885.55;;;;-51
2020/01/10 13:11:51;;;;;;;3.86;1.55;;;;;;;20.30;42.40;100884.10;;;;-50
2020/01/10 13:14:51;;;;;;;5.13;1.52;;;;;;;20.32;42.65;100885.48;;;;-52
2020/01/10 13:17:54;;;;;;;12.19;1.99;;;;;;;20.30;42.96;100887.33;;;;-46
2020/01/10 13:23:51;;;;;;;8.91;2.17;;;;;;;20.28;42.95;100902.27;;;;-54
2020/01/10 13:26:51;;;;;;;6.39;1.58;;;;;;;20.27;42.59;100909.50;;;;-59
2020/01/10 13:29:51;;;;;;;3.96;1.57;;;;;;;20.27;42.56;100913.52;;;;-51
2020/01/10 13:32:51;;;;;;;2.11;1.39;;;;;;;20.29;42.75;100935.72;;;;-47
2020/01/10 13:35:51;;;;;;;3.43;1.50;;;;;;;20.29;42.70;100943.98;;;;-48
2020/01/10 13:38:51;;;;;;;4.33;1.53;;;;;;;20.29;42.64;100949.28;;;;-48
2020/01/10 13:41:51;;;;;;;2.30;1.52;;;;;;;20.29;42.67;100948.67;;;;-47
2020/01/10 13:44:51;;;;;;;2.91;1.45;;;;;;;20.29;42.59;100950.52;;;;-47
2020/01/10 13:47:51;;;;;;;1.94;1.40;;;;;;;20.31;42.72;100947.77;;;;-49
2020/01/10 13:50:51;;;;;;;3.60;1.49;;;;;;;20.34;42.43;100955.63;;;;-49
2020/01/10 13:53:51;;;;;;;5.42;1.59;;;;;;;20.39;42.70;100956.61;;;;-47
2020/01/10 13:56:51;;;;;;;5.37;1.55;;;;;;;20.42;42.71;100964.48;;;;-54
2020/01/10 13:59:51;;;;;;;4.04;1.43;;;;;;;20.45;42.59;100965.95;;;;-54
2020/01/10 14:02:51;;;;;;;2.00;1.34;;;;;;;20.48;42.94;100962.53;;;;-47
2020/01/10 14:05:51;;;;;;;2.83;1.51;;;;;;;20.50;42.90;100964.09;;;;-49
2020/01/10 14:08:51;;;;;;;3.75;1.40;;;;;;;20.52;42.79;100968.32;;;;-49
2020/01/10 14:11:51;;;;;;;3.57;1.46;;;;;;;20.54;42.54;100965.19;;;;-48
2020/01/10 14:14:51;;;;;;;2.93;1.43;;;;;;;20.55;42.65;100976.25;;;;-49
2020/01/10 14:17:51;;;;;;;5.18;1.40;;;;;;;20.53;42.31;100983.59;;;;-56
2020/01/10 14:20:51;;;;;;;5.63;1.74;;;;;;;20.52;42.09;100986.06;;;;-48
2020/01/10 14:23:51;;;;;;;4.37;1.41;;;;;;;20.57;42.50;100994.23;;;;-50
2020/01/10 14:26:51;;;;;;;4.11;1.53;;;;;;;20.57;42.41;101017.73;;;;-50
2020/01/10 14:29:51;;;;;;;3.46;1.30;;;;;;;20.56;42.31;101021.78;;;;-50
2020/01/10 14:32:51;;;;;;;5.22;1.59;;;;;;;20.55;42.25;101022.67;;;;-50
2020/01/10 14:35:51;;;;;;;3.26;1.37;;;;;;;20.57;42.17;101029.44;;;;-47
2020/01/10 14:38:51;;;;;;;4.03;1.49;;;;;;;20.60;42.36;101031.09;;;;-48
2020/01/10 14:41:51;;;;;;;2.72;1.40;;;;;;;20.62;42.45;101032.74;;;;-51
2020/01/10 14:44:51;;;;;;;3.48;1.43;;;;;;;20.65;42.75;101038.83;;;;-47
2020/01/10 14:47:51;;;;;;;3.07;1.46;;;;;;;20.67;42.76;101038.76;;;;-48
2020/01/10 14:50:51;;;;;;;4.53;1.45;;;;;;;20.71;42.87;101042.54;;;;-50
2020/01/10 14:53:51;;;;;;;3.27;1.31;;;;;;;20.69;42.36;101046.58;;;;-51
2020/01/10 14:56:51;;;;;;;2.07;1.42;;;;;;;20.74;42.86;101051.19;;;;-51
2020/01/10 14:59:51;;;;;;;1.74;1.30;;;;;;;20.77;42.59;101058.39;;;;-58
2020/01/10 15:03:03;;;;;;;5.65;1.33;;;;;;;20.79;42.79;101062.47;;;;-49
2020/01/10 15:11:51;;;;;;;3.25;1.49;;;;;;;20.82;42.61;101070.75;;;;-47
2020/01/10 15:14:51;;;;;;;3.09;1.52;;;;;;;20.84;42.90;101077.91;;;;-47
2020/01/10 15:17:51;;;;;;;3.14;1.40;;;;;;;20.84;42.50;101080.61;;;;-51
2020/01/10 15:20:51;;;;;;;2.55;1.40;;;;;;;20.87;42.81;101089.48;;;;-51
2020/01/10 15:23:51;;;;;;;1.81;1.19;;;;;;;20.88;42.73;101094.00;;;;-54
2020/01/10 15:26:51;;;;;;;1.97;1.21;;;;;;;20.89;42.70;101100.16;;;;-52
2020/01/10 15:29:51;;;;;;;4.01;1.30;;;;;;;20.90;42.80;101102.67;;;;-49
2020/01/10 15:32:51;;;;;;;1.75;1.30;;;;;;;20.89;42.71;101118.67;;;;-50
2020/01/10 15:35:51;;;;;;;1.45;1.20;;;;;;;20.89;42.59;101115.61;;;;-50
2020/01/10 15:38:51;;;;;;;1.96;1.19;;;;;;;20.90;42.61;101119.12;;;;-57
2020/01/10 15:41:51;;;;;;;2.45;1.17;;;;;;;20.89;42.36;101129.48;;;;-50
2020/01/10 15:44:51;;;;;;;2.11;1.23;;;;;;;20.87;42.59;101128.38;;;;-48
2020/01/10 15:47:51;;;;;;;3.49;1.39;;;;;;;20.87;42.18;101134.14;;;;-50
2020/01/10 15:50:51;;;;;;;1.66;1.23;;;;;;;20.89;42.93;101138.72;;;;-56
2020/01/10 15:53:51;;;;;;;2.78;1.37;;;;;;;20.91;42.72;101142.91;;;;-46
2020/01/10 15:56:51;;;;;;;2.69;1.45;;;;;;;20.90;42.53;101146.42;;;;-51
2020/01/10 15:59:51;;;;;;;4.30;1.30;;;;;;;20.91;42.42;101154.27;;;;-48
2020/01/10 16:02:51;;;;;;;5.53;1.39;;;;;;;20.90;42.43;101163.95;;;;-59
2020/01/10 16:05:51;;;;;;;2.20;1.55;;;;;;;20.93;42.74;101176.59;;;;-48
2020/01/10 16:08:51;;;;;;;1.93;1.35;;;;;;;20.94;42.64;101191.13;;;;-51
2020/01/10 16:11:51;;;;;;;1.77;1.29;;;;;;;20.99;42.61;101205.31;;;;-49
2020/01/10 16:14:51;;;;;;;1.40;1.30;;;;;;;20.98;42.57;101217.53;;;;-53
2020/01/10 16:17:51;;;;;;;5.17;1.40;;;;;;;21.01;42.61;101227.66;;;;-54
2020/01/10 16:20:51;;;;;;;2.09;1.39;;;;;;;21.01;42.65;101239.06;;;;-49
2020/01/10 16:23:51;;;;;;;2.70;1.46;;;;;;;21.03;42.89;101243.98;;;;-48
2020/01/10 16:26:51;;;;;;;2.02;1.31;;;;;;;21.04;42.73;101248.23;;;;-50
2020/01/10 16:29:51;;;;;;;5.40;1.28;;;;;;;21.05;42.69;101260.16;;;;-48
2020/01/10 16:32:51;;;;;;;1.44;1.21;;;;;;;21.05;42.75;101264.23;;;;-48
2020/01/10 16:35:51;;;;;;;1.66;1.39;;;;;;;21.06;42.39;101272.37;;;;-50
2020/01/10 16:38:51;;;;;;;2.29;1.32;;;;;;;21.07;42.69;101280.86;;;;-54
2020/01/10 16:41:51;;;;;;;2.26;1.39;;;;;;;21.07;42.71;101289.53;;;;-56
2020/01/10 16:44:51;;;;;;;1.81;1.30;;;;;;;21.06;42.51;101292.67;;;;-51
2020/01/10 16:47:51;;;;;;;2.82;1.30;;;;;;;21.07;42.44;101300.95;;;;-50
2020/01/10 16:50:51;;;;;;;1.43;1.33;;;;;;;21.07;42.62;101304.87;;;;-47
2020/01/10 16:53:51;;;;;;;3.99;1.50;;;;;;;21.03;42.78;101315.76;;;;-53
2020/01/10 16:56:51;;;;;;;3.06;1.47;;;;;;;20.98;41.75;101321.44;;;;-48
2020/01/10 16:59:51;;;;;;;3.30;1.70;;;;;;;20.95;42.22;101334.93;;;;-51
2020/01/10 17:02:51;;;;;;;2.80;1.47;;;;;;;20.94;41.83;101339.58;;;;-50
2020/01/10 17:05:51;;;;;;;5.58;1.51;;;;;;;20.95;42.07;101354.29;;;;-51
2020/01/10 17:08:51;;;;;;;3.74;1.51;;;;;;;20.99;42.14;101359.37;;;;-49
2020/01/10 17:11:51;;;;;;;2.04;1.40;;;;;;;21.02;42.22;101365.14;;;;-54
2020/01/10 17:14:51;;;;;;;3.62;1.53;;;;;;;21.04;42.19;101368.72;;;;-53
2020/01/10 17:17:53;;;;;;;3.89;1.54;;;;;;;21.07;42.26;101378.17;;;;-46
2020/01/10 17:21:27;;;;;;;3.34;1.49;;;;;;;21.07;42.05;101379.58;;;;-47
2020/01/10 17:23:59;;;;;;;4.18;1.39;;;;;;;21.11;42.57;101384.59;;;;-51
2020/01/10 17:26:55;;;;;;;1.97;1.53;;;;;;;21.13;42.42;101392.20;;;;-48
2020/01/10 17:29:51;;;;;;;3.01;1.59;;;;;;;21.14;42.46;101402.23;;;;-46
2020/01/10 17:32:51;;;;;;;1.44;1.33;;;;;;;21.14;42.50;101403.41;;;;-46
2020/01/10 17:35:51;;;;;;;2.37;1.49;;;;;;;21.15;42.37;101410.34;;;;-48
2020/01/10 17:38:51;;;;;;;1.49;1.37;;;;;;;21.15;42.56;101421.16;;;;-47
2020/01/10 17:41:51;;;;;;;2.85;1.50;;;;;;;21.14;42.18;101429.55;;;;-48
2020/01/10 17:44:51;;;;;;;1.99;1.43;;;;;;;21.16;42.35;101430.38;;;;-45